This is the latest recevied weather packets stored in our database for station/object K0SNA. If no packets are shown the sender has not sent any weather packets the latest 10 day(s).
| Time | Temp. | Humidity | Pressure | Rain* | Wind** | Luminosity | Snow |
|---|---|---|---|---|---|---|---|
| 1777566182 | 6.67° C | 50% | 1018.7 hPa | 0 mm | - | 370 W/m² | - |
| 1777565877 | 7.22° C | 52% | 1018.8 hPa | 0 mm | - | 333 W/m² | - |
| 1777565573 | 6.67° C | 52% | 1018.7 hPa | 0 mm | - | 717 W/m² | - |
| 1777565270 | 7.22° C | 51% | 1018.7 hPa | 0 mm | - | 186 W/m² | - |
| 1777564966 | 6.67° C | 53% | 1018.9 hPa | 0 mm | - | 665 W/m² | - |
| 1777564662 | 6.11° C | 54% | 1018.9 hPa | 0 mm | - | 630 W/m² | - |
| 1777564357 | 6.67° C | 52% | 1019.1 hPa | 0 mm | - | 150 W/m² | - |
| 1777564054 | 6.67° C | 52% | 1018.8 hPa | 0 mm | - | 375 W/m² | - |
| 1777563749 | 6.67° C | 53% | 1018.8 hPa | 0 mm | - | 171 W/m² | - |
| 1777563446 | 6.67° C | 52% | 1018.9 hPa | 0 mm | - | 534 W/m² | - |
| 1777563140 | 6.67° C | 52% | 1018.9 hPa | 0 mm | - | 635 W/m² | - |
| 1777562836 | 6.67° C | 53% | 1018.9 hPa | 0 mm | - | 618 W/m² | - |
| 1777562534 | 6.11° C | 53% | 1018.9 hPa | 0 mm | - | 565 W/m² | - |
| 1777562231 | 5.56° C | 55% | 1018.8 hPa | 0 mm | - | 572 W/m² | - |
| 1777561929 | 6.11° C | 55% | 1018.9 hPa | 0 mm | - | 133 W/m² | - |
| 1777561626 | 6.11° C | 54% | 1018.9 hPa | 0 mm | - | 552 W/m² | - |
| 1777561321 | 6.11° C | 55% | 1018.8 hPa | 0 mm | - | 557 W/m² | - |
| 1777561016 | 6.11° C | 55% | 1019 hPa | 0 mm | - | 544 W/m² | - |
| 1777560711 | 6.11° C | 55% | 1019 hPa | 0 mm | - | 191 W/m² | - |
| 1777560409 | 6.11° C | 57% | 1018.9 hPa | 0 mm | - | 481 W/m² | - |
| 1777560107 | 6.11° C | 56% | 1018.9 hPa | 0 mm | - | 431 W/m² | - |
| 1777559803 | 6.11° C | 56% | 1019 hPa | 0 mm | - | 407 W/m² | - |
| 1777559500 | 5.56° C | 58% | 1019.1 hPa | 0 mm | - | 392 W/m² | - |
| 1777559196 | 5.56° C | 58% | 1019 hPa | 0 mm | - | 382 W/m² | - |
| 1777558891 | 5.56° C | 58% | 1018.8 hPa | 0 mm | - | 366 W/m² | - |
* Rain latest hour (hover to see other rain measurements)
** Current wind speed in m/s (hover to see current wind gust speed)